Galatia, Kansas
Current Conditions -  °F | °C
As of 2:35 AM on Friday 31 Oct 2014 (Local Time) from KGBD Reporting Station
Clear Clear  
Wind Chill:   Ceiling: Unl
Heat Index:   Visibility: 10mi
Dew Point: -1°   Wind: 16mph
Humidity: 65%   Direction: 20°NNE
Pressure: 30.41"   Gusts: 21mph
Location:  38.523°N, 99.0878°W
Report Text: KGBD 310735Z AUTO 02014G18KT 10SM CLR 05/M01 A3041 RMK AO1
Loading
Personal Weather Stations






























Interactive Weather Map
Tropical Storm Tracking
New forecast layout! Learn more

10-Day Weather Forecast

Advertisements
Track Severe Weather on mobile